createdAt,value
2019-02-21T00:00:51.585Z,67.04
2019-02-21T00:03:25.331Z,67.20
2019-02-21T00:05:58.025Z,67.23
2019-02-21T00:08:27.580Z,67.17
2019-02-21T00:10:58.685Z,67.29
2019-02-21T00:13:28.457Z,67.21
2019-02-21T00:15:58.591Z,67.25
2019-02-21T00:18:29.893Z,67.39
2019-02-21T00:20:59.442Z,67.76
2019-02-21T00:23:28.981Z,67.54
2019-02-21T00:25:58.773Z,67.66
2019-02-21T00:28:32.086Z,67.72
2019-02-21T00:31:01.703Z,67.92
2019-02-21T00:33:31.219Z,68.01
2019-02-21T00:36:00.772Z,67.94
2019-02-21T00:38:30.359Z,68.11
2019-02-21T00:41:02.827Z,68.06
2019-02-21T00:43:32.390Z,67.99
2019-02-21T00:46:04.020Z,68.05
2019-02-21T00:48:36.620Z,68.24
2019-02-21T00:51:07.195Z,68.28
2019-02-21T00:53:38.759Z,68.65
2019-02-21T00:56:08.299Z,68.84
2019-02-21T00:58:37.887Z,68.58
2019-02-21T01:01:07.913Z,68.65
2019-02-21T01:03:38.311Z,68.66
2019-02-21T01:06:09.668Z,68.87
2019-02-21T01:08:39.503Z,68.67
2019-02-21T01:11:09.642Z,68.71
2019-02-21T01:13:39.207Z,68.82
2019-02-21T01:16:13.490Z,68.80
2019-02-21T01:18:43.985Z,68.76
2019-02-21T01:21:13.574Z,68.84
2019-02-21T01:23:43.189Z,68.90
2019-02-21T01:26:17.887Z,69.21
2019-02-21T01:28:52.294Z,69.34
2019-02-21T01:31:21.958Z,69.52
2019-02-21T01:33:51.700Z,69.63
2019-02-21T01:36:21.866Z,69.69
2019-02-21T01:38:53.056Z,69.74
2019-02-21T01:41:23.053Z,69.67
2019-02-21T01:43:54.357Z,69.84
2019-02-21T01:46:23.857Z,69.83
2019-02-21T01:48:59.515Z,69.82
2019-02-21T01:51:31.668Z,69.87
2019-02-21T01:54:03.031Z,69.71
2019-02-21T01:56:32.644Z,69.90
2019-02-21T01:59:02.315Z,69.81
2019-02-21T02:01:32.465Z,69.61
2019-02-21T02:04:03.668Z,69.81
2019-02-21T02:06:33.226Z,70.21
2019-02-21T02:09:11.713Z,69.96
2019-02-21T02:11:38.528Z,70.23
2019-02-21T02:14:08.077Z,70.11
2019-02-21T02:16:40.109Z,70.32
2019-02-21T02:19:10.234Z,70.39
2019-02-21T02:21:40.031Z,70.47
2019-02-21T02:24:14.747Z,70.50
2019-02-21T02:26:45.671Z,70.46
2019-02-21T02:29:21.740Z,70.29
2019-02-21T02:31:51.089Z,70.15
2019-02-21T02:34:20.639Z,70.28
2019-02-21T02:36:51.856Z,70.38
2019-02-21T02:39:22.024Z,70.61
2019-02-21T02:41:54.515Z,70.51
2019-02-21T02:44:24.115Z,70.65
2019-02-21T02:46:54.615Z,70.67
2019-02-21T02:49:25.139Z,70.71
2019-02-21T02:51:55.990Z,70.69
2019-02-21T02:54:27.794Z,70.78
2019-02-21T02:56:59.896Z,70.68
2019-02-21T02:59:40.379Z,71.15
2019-02-21T03:02:05.589Z,70.99
2019-02-21T03:04:36.087Z,71.11
2019-02-21T03:07:06.611Z,71.15
2019-02-21T03:09:36.223Z,71.05
2019-02-21T03:12:07.155Z,71.16
2019-02-21T03:14:36.883Z,71.09
2019-02-21T03:17:10.997Z,71.22
2019-02-21T03:19:42.635Z,71.39
2019-02-21T03:22:13.592Z,71.58
2019-02-21T03:24:43.195Z,71.57
2019-02-21T03:27:12.833Z,71.37
2019-02-21T03:29:42.418Z,71.54
2019-02-21T03:32:12.544Z,71.25
2019-02-21T03:34:46.032Z,71.19
2019-02-21T03:37:15.592Z,71.48
2019-02-21T03:39:47.874Z,71.30
2019-02-21T03:42:17.403Z,71.22
2019-02-21T03:44:47.027Z,71.43
2019-02-21T03:47:16.596Z,71.24
2019-02-21T03:49:46.176Z,71.54
2019-02-21T03:52:15.705Z,71.43
2019-02-21T03:54:47.210Z,71.64
2019-02-21T03:57:16.824Z,71.57
2019-02-21T03:59:46.351Z,71.38
2019-02-21T04:02:15.975Z,71.90
2019-02-21T04:04:45.696Z,71.65
2019-02-21T04:07:21.416Z,71.57
2019-02-21T04:09:52.933Z,71.45
2019-02-21T04:12:24.231Z,71.70
2019-02-21T04:14:54.196Z,71.45
2019-02-21T04:17:24.049Z,71.56
2019-02-21T04:19:53.624Z,71.49
2019-02-21T04:22:29.088Z,71.33
2019-02-21T04:24:59.115Z,71.29
2019-02-21T04:27:29.230Z,71.41
2019-02-21T04:29:58.794Z,71.26
2019-02-21T04:32:28.393Z,71.81
2019-02-21T04:34:58.071Z,71.85
2019-02-21T04:37:27.623Z,71.58
2019-02-21T04:39:59.917Z,71.70
2019-02-21T04:42:29.598Z,71.77
2019-02-21T04:45:02.138Z,71.59
2019-02-21T04:47:32.972Z,71.86
2019-02-21T04:50:03.185Z,71.86
2019-02-21T04:52:32.853Z,72.01
2019-02-21T04:55:04.038Z,71.78
2019-02-21T04:57:35.714Z,71.81
2019-02-21T05:00:10.806Z,71.92
2019-02-21T05:02:42.206Z,71.85
2019-02-21T05:05:13.943Z,72.16
2019-02-21T05:07:45.986Z,72.12
2019-02-21T05:10:19.174Z,72.21
2019-02-21T05:12:49.150Z,72.03
2019-02-21T05:15:21.555Z,72.01
2019-02-21T05:17:51.432Z,71.98
2019-02-21T05:20:22.772Z,71.95
2019-02-21T05:22:52.933Z,71.92
2019-02-21T05:25:24.141Z,71.92
2019-02-21T05:27:54.965Z,71.90
2019-02-21T05:30:26.653Z,72.06
2019-02-21T05:33:05.428Z,72.20
2019-02-21T05:35:36.889Z,72.13
2019-02-21T05:38:10.131Z,72.39
2019-02-21T05:40:42.090Z,72.27
2019-02-21T05:43:31.366Z,72.31
2019-02-21T05:46:04.898Z,72.50
2019-02-21T05:48:39.981Z,72.66
2019-02-21T05:51:12.811Z,72.59
2019-02-21T05:53:50.523Z,72.68
2019-02-21T05:56:20.284Z,72.72
2019-02-21T05:58:51.576Z,72.66
2019-02-21T06:01:40.398Z,72.71
2019-02-21T06:04:12.189Z,73.11
2019-02-21T06:06:48.469Z,72.99
2019-02-21T06:09:23.222Z,73.03
2019-02-21T06:11:57.167Z,73.14
2019-02-21T06:14:40.148Z,73.20
2019-02-21T06:17:17.142Z,73.40
2019-02-21T06:19:51.088Z,73.59
2019-02-21T06:22:31.822Z,73.35
2019-02-21T06:25:03.150Z,73.59
2019-02-21T06:27:38.104Z,73.57
2019-02-21T06:30:12.753Z,73.52
2019-02-21T06:32:42.691Z,73.78
2019-02-21T06:35:15.944Z,73.81
2019-02-21T06:37:45.505Z,73.74
2019-02-21T06:40:16.407Z,73.77
2019-02-21T06:42:46.088Z,73.65
2019-02-21T06:45:18.103Z,73.59
2019-02-21T06:47:49.038Z,73.54
2019-02-21T06:50:26.683Z,73.75
2019-02-21T06:52:54.681Z,73.98
2019-02-21T06:55:26.928Z,74.11
2019-02-21T06:57:58.945Z,73.95
2019-02-21T07:00:29.156Z,74.01
2019-02-21T07:02:59.049Z,73.83
2019-02-21T07:05:30.532Z,74.08
2019-02-21T07:08:00.099Z,73.94
2019-02-21T07:10:29.739Z,74.08
2019-02-21T07:13:00.466Z,73.97
2019-02-21T07:15:30.337Z,74.24
2019-02-21T07:17:59.948Z,74.15
2019-02-21T07:20:30.138Z,74.18
2019-02-21T07:23:05.342Z,74.46
2019-02-21T07:25:45.367Z,74.56
2019-02-21T07:28:16.098Z,74.49
2019-02-21T07:30:51.414Z,74.47
2019-02-21T07:33:28.419Z,74.57
2019-02-21T07:35:52.865Z,74.70
2019-02-21T07:38:22.432Z,74.74
2019-02-21T07:40:54.192Z,74.49
2019-02-21T07:43:24.957Z,74.20
2019-02-21T07:45:56.610Z,74.32
2019-02-21T07:48:27.182Z,74.31
2019-02-21T07:50:59.737Z,74.12
2019-02-21T07:53:29.700Z,74.19
2019-02-21T07:55:59.843Z,73.91
2019-02-21T07:58:29.347Z,73.82
2019-02-21T08:00:59.082Z,73.66
2019-02-21T08:03:32.121Z,73.86
2019-02-21T08:06:00.453Z,73.70
2019-02-21T08:08:32.471Z,73.41
2019-02-21T08:11:03.917Z,73.17
2019-02-21T08:13:33.799Z,73.00
2019-02-21T08:16:03.385Z,73.07
2019-02-21T08:18:35.530Z,72.63
2019-02-21T08:21:08.012Z,72.65
2019-02-21T08:23:37.839Z,72.47
2019-02-21T08:26:07.736Z,72.33
2019-02-21T08:28:39.325Z,72.12
2019-02-21T08:31:11.930Z,71.96
2019-02-21T08:33:59.056Z,71.68
2019-02-21T08:36:28.787Z,71.44
2019-02-21T08:39:00.603Z,71.26
2019-02-21T08:41:34.829Z,71.01
2019-02-21T08:44:04.704Z,71.02
2019-02-21T08:46:35.636Z,70.80
2019-02-21T08:49:06.492Z,70.68
2019-02-21T08:51:36.019Z,70.40
2019-02-21T08:54:05.924Z,70.29
2019-02-21T08:56:36.289Z,70.05
2019-02-21T08:59:06.945Z,69.82
2019-02-21T09:01:37.666Z,69.67
2019-02-21T09:04:10.455Z,69.63
2019-02-21T09:06:38.814Z,69.23
2019-02-21T09:09:08.933Z,69.04
2019-02-21T09:11:39.805Z,68.97
2019-02-21T09:14:09.363Z,68.90
2019-02-21T09:16:39.030Z,68.65
2019-02-21T09:19:12.549Z,68.57
2019-02-21T09:21:42.245Z,68.61
2019-02-21T09:24:13.763Z,68.39
2019-02-21T09:26:45.475Z,68.22
2019-02-21T09:29:16.476Z,68.12
2019-02-21T09:31:47.643Z,67.92
2019-02-21T09:34:21.126Z,67.68
2019-02-21T09:36:50.006Z,67.67
2019-02-21T09:39:20.059Z,67.74
2019-02-21T09:41:51.491Z,67.83
2019-02-21T09:44:21.398Z,67.95
2019-02-21T09:46:51.542Z,67.70
2019-02-21T09:49:21.612Z,67.77
2019-02-21T09:51:51.751Z,67.93
2019-02-21T09:54:27.464Z,68.05
2019-02-21T09:56:54.614Z,67.83
2019-02-21T09:59:24.622Z,67.68
2019-02-21T10:01:54.216Z,67.58
2019-02-21T10:04:31.778Z,67.33
2019-02-21T10:06:56.878Z,67.27
2019-02-21T10:09:26.692Z,67.43
2019-02-21T10:11:59.149Z,67.16
2019-02-21T10:14:30.456Z,66.95
2019-02-21T10:17:00.047Z,67.04
2019-02-21T10:19:29.610Z,66.93
2019-02-21T10:21:59.169Z,66.74
2019-02-21T10:24:29.933Z,66.63
2019-02-21T10:26:59.946Z,66.69
2019-02-21T10:29:30.892Z,66.71
2019-02-21T10:32:00.428Z,66.62
2019-02-21T10:34:29.976Z,66.59
2019-02-21T10:37:00.226Z,66.46
2019-02-21T10:39:30.167Z,66.73
2019-02-21T10:41:59.740Z,66.81
2019-02-21T10:44:29.696Z,67.03
2019-02-21T10:47:01.713Z,66.76
2019-02-21T10:49:34.897Z,66.74
2019-02-21T10:52:08.231Z,66.71
2019-02-21T10:54:37.791Z,66.28
2019-02-21T10:57:08.482Z,66.18
2019-02-21T10:59:46.596Z,66.05
2019-02-21T11:02:12.983Z,65.73
2019-02-21T11:04:54.389Z,65.95
2019-02-21T11:07:16.313Z,65.67
2019-02-21T11:09:47.519Z,65.43
2019-02-21T11:12:17.068Z,65.30
2019-02-21T11:14:47.872Z,65.30
2019-02-21T11:17:17.951Z,64.94
2019-02-21T11:19:48.039Z,64.69
2019-02-21T11:22:17.620Z,64.40
2019-02-21T11:24:52.138Z,64.39
2019-02-21T11:27:22.285Z,64.35
2019-02-21T11:29:53.831Z,64.48
2019-02-21T11:32:26.695Z,64.28
2019-02-21T11:35:05.882Z,64.06
2019-02-21T11:37:42.366Z,63.97
2019-02-21T11:40:08.232Z,63.65
2019-02-21T11:42:39.162Z,63.08
2019-02-21T11:45:20.853Z,62.92
2019-02-21T11:47:50.447Z,62.54
2019-02-21T11:50:20.852Z,62.31
2019-02-21T11:52:50.758Z,62.04
2019-02-21T11:55:23.792Z,60.67
2019-02-21T11:57:54.202Z,60.35
2019-02-21T12:00:30.747Z,60.32
2019-02-21T12:03:00.329Z,59.91
2019-02-21T12:05:32.112Z,59.45
2019-02-21T12:08:03.310Z,59.49
2019-02-21T12:10:32.927Z,59.49
2019-02-21T12:13:02.488Z,59.45
2019-02-21T12:15:32.855Z,59.71
2019-02-21T12:18:02.665Z,59.59
2019-02-21T12:20:33.802Z,59.49
2019-02-21T12:23:03.447Z,59.75
2019-02-21T12:25:33.261Z,59.63
2019-02-21T12:28:04.707Z,59.53
2019-02-21T12:30:37.061Z,59.50
2019-02-21T12:33:09.557Z,58.67
2019-02-21T12:35:39.171Z,57.71
2019-02-21T12:38:10.525Z,57.09
2019-02-21T12:40:40.073Z,57.42
2019-02-21T12:43:15.583Z,57.47
2019-02-21T12:45:45.226Z,57.38
2019-02-21T12:48:15.120Z,57.58
2019-02-21T12:50:45.312Z,57.51
2019-02-21T12:53:15.273Z,57.40
2019-02-21T12:55:44.968Z,57.78
2019-02-21T12:58:14.748Z,57.79
2019-02-21T13:00:44.314Z,57.69
2019-02-21T13:03:16.934Z,57.49
2019-02-21T13:05:48.591Z,57.56
2019-02-21T13:08:18.588Z,57.69
2019-02-21T13:10:48.119Z,57.65
2019-02-21T13:13:21.297Z,57.56
2019-02-21T13:15:52.153Z,57.45
2019-02-21T13:18:22.677Z,57.30
2019-02-21T13:20:53.375Z,57.26
2019-02-21T13:23:23.606Z,57.20
2019-02-21T13:25:54.208Z,57.40
2019-02-21T13:28:24.115Z,57.53
2019-02-21T13:30:54.243Z,57.59
2019-02-21T13:33:24.155Z,57.60
2019-02-21T13:35:54.135Z,57.57
2019-02-21T13:38:24.311Z,57.63
2019-02-21T13:40:54.371Z,57.50
2019-02-21T13:43:23.914Z,57.17
2019-02-21T13:45:59.980Z,57.08
2019-02-21T13:48:31.117Z,56.93
2019-02-21T13:51:01.046Z,56.33
2019-02-21T13:53:31.126Z,56.08
2019-02-21T13:56:01.357Z,55.65
2019-02-21T13:58:31.562Z,55.61
2019-02-21T14:01:01.606Z,55.40
2019-02-21T14:03:31.791Z,55.56
2019-02-21T14:06:03.765Z,55.71
2019-02-21T14:08:36.711Z,55.85
2019-02-21T14:11:09.210Z,56.40
2019-02-21T14:13:38.859Z,56.47
2019-02-21T14:16:08.664Z,56.42
2019-02-21T14:18:38.271Z,56.55
2019-02-21T14:21:11.484Z,56.56
2019-02-21T14:23:41.018Z,56.54
2019-02-21T14:26:10.666Z,56.39
2019-02-21T14:28:40.434Z,56.72
2019-02-21T14:31:10.274Z,56.46
2019-02-21T14:33:42.492Z,56.63
2019-02-21T14:36:16.020Z,56.90
2019-02-21T14:38:43.290Z,56.82
2019-02-21T14:41:12.922Z,56.76
2019-02-21T14:43:45.250Z,56.79
2019-02-21T14:46:14.788Z,57.00
2019-02-21T14:48:45.715Z,57.18
2019-02-21T14:51:16.739Z,57.38
2019-02-21T14:53:46.303Z,57.76
2019-02-21T14:56:15.876Z,58.09
2019-02-21T14:58:46.734Z,58.00
2019-02-21T15:01:16.938Z,56.87
2019-02-21T15:03:47.052Z,56.82
2019-02-21T15:06:26.944Z,56.67
2019-02-21T15:08:50.868Z,56.61
2019-02-21T15:11:20.441Z,56.58
2019-02-21T15:13:50.351Z,56.57
2019-02-21T15:16:21.800Z,56.69
2019-02-21T15:18:51.929Z,56.93
2019-02-21T15:21:22.431Z,56.92
2019-02-21T15:23:52.066Z,57.08
2019-02-21T15:26:21.886Z,57.24
2019-02-21T15:28:51.438Z,57.34
2019-02-21T15:31:21.234Z,57.47
2019-02-21T15:33:50.831Z,57.49
2019-02-21T15:36:21.638Z,57.29
2019-02-21T15:38:52.415Z,57.01
2019-02-21T15:41:24.082Z,57.22
2019-02-21T15:43:53.614Z,56.87
2019-02-21T15:46:23.174Z,56.94
2019-02-21T15:48:52.772Z,57.04
2019-02-21T15:51:22.344Z,57.12
2019-02-21T15:53:51.949Z,57.23
2019-02-21T15:56:21.714Z,57.49
2019-02-21T15:58:54.214Z,57.71
2019-02-21T16:01:23.758Z,57.88
2019-02-21T16:03:53.417Z,57.87
2019-02-21T16:06:22.999Z,57.90
2019-02-21T16:08:52.625Z,57.91
2019-02-21T16:11:22.173Z,58.13
2019-02-21T16:14:02.539Z,58.11
2019-02-21T16:16:23.156Z,58.19
2019-02-21T16:18:52.770Z,58.11
2019-02-21T16:21:22.602Z,58.25
2019-02-21T16:23:52.109Z,58.41
2019-02-21T16:26:21.754Z,58.44
2019-02-21T16:28:51.390Z,58.41
2019-02-21T16:31:23.798Z,58.44
2019-02-21T16:33:53.373Z,58.49
2019-02-21T16:36:22.935Z,58.51
2019-02-21T16:38:52.484Z,58.53
2019-02-21T16:41:22.128Z,58.72
2019-02-21T16:43:51.715Z,58.78
2019-02-21T16:46:21.271Z,58.94
2019-02-21T16:48:52.010Z,59.00
2019-02-21T16:51:25.720Z,59.26
2019-02-21T16:53:55.270Z,59.64
2019-02-21T16:56:26.623Z,59.67
2019-02-21T16:58:56.102Z,59.74
2019-02-21T17:01:25.668Z,59.80
2019-02-21T17:03:55.255Z,59.94
2019-02-21T17:06:24.830Z,60.12
2019-02-21T17:08:55.791Z,60.36
2019-02-21T17:11:25.408Z,60.42
2019-02-21T17:13:54.977Z,60.40
2019-02-21T17:16:24.522Z,60.69
2019-02-21T17:18:55.988Z,60.79
2019-02-21T17:21:25.379Z,60.93
2019-02-21T17:23:55.958Z,61.05
2019-02-21T17:26:25.562Z,61.07
2019-02-21T17:28:55.384Z,61.33
2019-02-21T17:31:25.029Z,61.39
2019-02-21T17:33:54.595Z,61.50
2019-02-21T17:36:24.205Z,61.43
2019-02-21T17:38:53.712Z,61.68
2019-02-21T17:41:23.311Z,61.60
2019-02-21T17:43:52.873Z,61.63
2019-02-21T17:46:22.433Z,61.84
2019-02-21T17:48:52.056Z,62.23
2019-02-21T17:51:21.597Z,62.18
2019-02-21T17:53:55.811Z,62.04
2019-02-21T17:56:22.472Z,62.44
2019-02-21T17:58:52.065Z,62.76
2019-02-21T18:01:23.124Z,62.93
2019-02-21T18:03:52.751Z,63.77
2019-02-21T18:06:22.964Z,63.89
2019-02-21T18:08:55.151Z,64.50
2019-02-21T18:11:25.130Z,64.36
2019-02-21T18:13:57.189Z,64.88
2019-02-21T18:16:27.313Z,64.46
2019-02-21T18:18:56.923Z,64.39
2019-02-21T18:21:28.158Z,64.48
2019-02-21T18:24:03.623Z,64.60
2019-02-21T18:26:33.177Z,64.57
2019-02-21T18:29:02.740Z,64.54
2019-02-21T18:31:32.303Z,65.05
2019-02-21T18:34:01.841Z,64.97
2019-02-21T18:36:35.659Z,64.90
2019-02-21T18:39:07.000Z,64.72
2019-02-21T18:41:36.992Z,64.86
2019-02-21T18:44:06.610Z,64.96
2019-02-21T18:46:36.521Z,65.03
2019-02-21T18:49:08.458Z,65.14
2019-02-21T18:51:38.423Z,65.33
2019-02-21T18:54:08.142Z,65.15
2019-02-21T18:56:40.476Z,65.27
2019-02-21T18:59:10.527Z,65.36
2019-02-21T19:01:40.602Z,65.50
2019-02-21T19:04:10.509Z,65.44
2019-02-21T19:06:40.495Z,65.53
2019-02-21T19:09:10.587Z,65.51
2019-02-21T19:11:41.079Z,65.69
2019-02-21T19:14:11.003Z,66.53
2019-02-21T19:16:40.878Z,67.13
2019-02-21T19:19:12.266Z,67.34
2019-02-21T19:21:42.270Z,67.32
2019-02-21T19:24:12.528Z,68.35
2019-02-21T19:26:42.613Z,69.48
2019-02-21T19:29:12.749Z,69.62
2019-02-21T19:31:42.839Z,69.37
2019-02-21T19:34:12.739Z,69.18
2019-02-21T19:36:42.732Z,69.95
2019-02-21T19:39:14.413Z,70.27
2019-02-21T19:41:46.489Z,71.74
2019-02-21T19:44:16.599Z,73.62
2019-02-21T19:46:48.442Z,73.85
2019-02-21T19:49:19.472Z,74.45
2019-02-21T19:51:49.880Z,74.78
2019-02-21T19:54:20.066Z,75.25
2019-02-21T19:56:52.569Z,75.48
2019-02-21T19:59:23.289Z,75.45
2019-02-21T20:01:58.479Z,75.20
2019-02-21T20:04:28.698Z,75.91
2019-02-21T20:06:58.839Z,76.24
2019-02-21T20:09:29.303Z,76.36
2019-02-21T20:12:00.120Z,77.66
2019-02-21T20:14:30.062Z,77.95
2019-02-21T20:17:00.328Z,77.66
2019-02-21T20:19:30.508Z,77.20
2019-02-21T20:22:01.579Z,78.08
2019-02-21T20:24:32.805Z,78.33
2019-02-21T20:27:02.893Z,78.25
2019-02-21T20:29:35.920Z,78.18
2019-02-21T20:32:06.639Z,79.05
2019-02-21T20:34:37.097Z,79.95
2019-02-21T20:37:07.439Z,80.28
2019-02-21T20:39:38.045Z,81.19
2019-02-21T20:42:08.734Z,81.36
2019-02-21T20:44:39.033Z,81.65
2019-02-21T20:47:11.180Z,81.98
2019-02-21T20:49:41.397Z,82.30
2019-02-21T20:52:11.778Z,82.35
2019-02-21T20:54:43.139Z,82.32
2019-02-21T20:57:17.169Z,82.03
2019-02-21T20:59:47.508Z,81.89
2019-02-21T21:02:20.520Z,81.93
2019-02-21T21:04:56.729Z,82.25
2019-02-21T21:07:25.089Z,81.84
2019-02-21T21:09:55.430Z,81.59
2019-02-21T21:12:26.789Z,81.86
2019-02-21T21:15:01.779Z,82.05
2019-02-21T21:17:33.688Z,82.58
2019-02-21T21:20:15.856Z,82.14
2019-02-21T21:22:39.176Z,83.18
2019-02-21T21:25:18.193Z,83.23
2019-02-21T21:27:48.036Z,83.31
2019-02-21T21:30:19.380Z,82.89
2019-02-21T21:32:49.478Z,82.62
2019-02-21T21:35:19.776Z,82.39
2019-02-21T21:37:49.927Z,82.57
2019-02-21T21:40:20.727Z,82.29
2019-02-21T21:42:50.264Z,82.26
2019-02-21T21:45:19.942Z,82.10
2019-02-21T21:47:50.023Z,82.73
2019-02-21T21:50:21.204Z,83.04
2019-02-21T21:52:50.766Z,82.71
2019-02-21T21:55:23.424Z,83.02
2019-02-21T21:57:53.012Z,82.93
2019-02-21T22:00:24.252Z,82.61
2019-02-21T22:02:54.054Z,82.38
2019-02-21T22:05:23.944Z,82.65
2019-02-21T22:07:53.888Z,82.75
2019-02-21T22:10:23.985Z,82.96
2019-02-21T22:12:53.777Z,83.08
2019-02-21T22:15:24.858Z,83.25
2019-02-21T22:17:56.696Z,83.03
2019-02-21T22:20:26.833Z,83.13
2019-02-21T22:22:59.218Z,83.21
2019-02-21T22:25:29.296Z,83.77
2019-02-21T22:27:59.294Z,83.58
2019-02-21T22:30:31.377Z,83.50
2019-02-21T22:33:02.604Z,83.23
2019-02-21T22:35:34.318Z,83.00
2019-02-21T22:38:03.939Z,83.08
2019-02-21T22:40:33.478Z,83.22
2019-02-21T22:43:04.543Z,83.08
2019-02-21T22:45:34.934Z,83.08
2019-02-21T22:48:07.866Z,83.18
2019-02-21T22:50:38.014Z,82.99
2019-02-21T22:53:07.605Z,82.89
2019-02-21T22:55:37.626Z,82.97
2019-02-21T22:58:07.151Z,83.25
2019-02-21T23:00:59.965Z,83.34
2019-02-21T23:03:40.635Z,82.99
2019-02-21T23:06:29.926Z,82.64
2019-02-21T23:09:00.031Z,82.49
2019-02-21T23:11:29.693Z,83.19
2019-02-21T23:13:59.785Z,83.41
2019-02-21T23:16:29.394Z,83.42
2019-02-21T23:19:00.747Z,83.26
2019-02-21T23:21:30.347Z,83.34
2019-02-21T23:23:59.907Z,83.12
2019-02-21T23:26:31.891Z,83.09
2019-02-21T23:29:01.638Z,83.42
2019-02-21T23:31:31.442Z,83.72
2019-02-21T23:34:05.485Z,83.54
2019-02-21T23:36:35.163Z,83.49
2019-02-21T23:39:05.025Z,83.37
2019-02-21T23:41:34.598Z,83.67
2019-02-21T23:44:04.270Z,83.63
2019-02-21T23:46:34.959Z,84.25
2019-02-21T23:49:04.584Z,84.21
2019-02-21T23:51:34.128Z,84.12
2019-02-21T23:54:03.981Z,84.19
2019-02-21T23:56:33.509Z,84.05
2019-02-21T23:59:03.030Z,84.21
